Vidnoe — UBDU — position and weather

sailwx.info

Track history (hours):
 
Tides and Currents Weather Stations Pressure Air Temp Water Temp Dewpoint Dewpoint Depression Visibility Wind Speed Wind Dir Waves Ship Positions

Vidnoe

Last reported at 2014-Oct-22 16:30 UTC. Time now 2014-Nov-01 13:22 UTC.
Position N 59°53' E 030°13'.
Warning: this ship's position is 9 days out of date.

Length 115 m; beam 17 m.

Type: Tanker. MMSI: 273516400.

Date/timePositionNaut miles runAvg speedWind from/ knotsBaromVisibWave heightAir tempDewpointWater temp
2014-Oct-22 16:30N 59°53' E 030°13'0 0.0
2014-Oct-22 15:31N 59°53' E 030°13'0 0.0
2014-Oct-22 14:33N 59°53' E 030°13'0 0.0
2014-Oct-22 13:24N 59°53' E 030°13'0 0.0
2014-Oct-22 12:30N 59°53' E 030°13'0 0.0
2014-Oct-22 10:14N 59°53' E 030°13'0 0.0
2014-Oct-22 09:34N 59°53' E 030°13'0 0.0
2014-Oct-22 08:23N 59°53' E 030°13'0 0.0
2014-Oct-22 07:29N 59°53' E 030°13'0 0.0
2014-Oct-22 06:25N 59°53' E 030°13'0 0.0
2014-Oct-22 04:33N 59°53' E 030°13'0 0.0
2014-Oct-22 03:33N 59°53' E 030°13'0 0.0
2014-Oct-22 02:33N 59°53' E 030°13'0 0.0
2014-Oct-22 01:31N 59°53' E 030°13'0 0.0
2014-Oct-21 20:33N 59°53' E 030°13'0 0.0
2014-Oct-21 19:31N 59°53' E 030°13'0 0.0
2014-Oct-21 18:25N 59°53' E 030°13'0 0.0
2014-Oct-21 17:32N 59°53' E 030°13'0 0.0
2014-Oct-21 16:30N 59°53' E 030°13'0 0.0
2014-Oct-21 15:32N 59°53' E 030°13'0 0.0
2014-Oct-21 14:31N 59°53' E 030°13'0 0.0
2014-Oct-21 13:31N 59°53' E 030°13'0 0.0
2014-Oct-21 11:30N 59°53' E 030°13'0 0.0
2014-Oct-21 10:26N 59°53' E 030°13'0 0.0
2014-Oct-21 09:29N 59°53' E 030°13'0 0.0
2014-Oct-21 08:33N 59°53' E 030°13'0 0.0
2014-Oct-21 07:33N 59°53' E 030°13'0 0.0
2014-Oct-21 06:33N 59°53' E 030°13'0 0.0
2014-Oct-21 05:33N 59°53' E 030°13'0 0.0
2014-Oct-21 04:33N 59°53' E 030°13'0 0.0
2014-Oct-21 03:33N 59°53' E 030°13'0 0.0
2014-Oct-21 02:33N 59°53' E 030°13'0 0.0
2014-Oct-21 01:19N 59°53' E 030°13'0 0.0
2014-Oct-21 00:32N 59°53' E 030°13'0 0.0
2014-Oct-20 23:31N 59°53' E 030°13'0 0.0
2014-Oct-20 22:26N 59°53' E 030°13'0 0.0
2014-Oct-20 21:28N 59°53' E 030°13'0 0.0
2014-Oct-20 20:31N 59°53' E 030°13'0 0.0
2014-Oct-20 19:32N 59°53' E 030°13'0 0.0
2014-Oct-20 18:33N 59°53' E 030°13'0 0.0
2014-Oct-20 17:33N 59°53' E 030°13'0 0.0
2014-Oct-20 16:33N 59°53' E 030°13'0 0.0
2014-Oct-20 15:32N 59°53' E 030°13'0 0.0
2014-Oct-20 14:32N 59°53' E 030°13'0 0.0
2014-Oct-20 13:32N 59°53' E 030°13'0 0.0
2014-Oct-20 12:32N 59°53' E 030°13'0 0.0
2014-Oct-20 11:32N 59°53' E 030°13'0 0.0
2014-Oct-20 10:32N 59°53' E 030°13'0 0.0
2014-Oct-20 09:32N 59°53' E 030°13'0 0.0
2014-Oct-20 08:33N 59°53' E 030°13'0 0.0
2014-Oct-20 07:33N 59°53' E 030°13'0 0.0
2014-Oct-20 06:33N 59°53' E 030°13'0 0.0
2014-Oct-20 05:33N 59°53' E 030°13'0 0.0
2014-Oct-20 04:14N 59°53' E 030°13'0 0.0
2014-Oct-20 03:33N 59°53' E 030°13'0 0.0
2014-Oct-20 02:34N 59°53' E 030°13'0 0.0
2014-Oct-20 01:33N 59°53' E 030°13'0 0.0
2014-Oct-20 00:33N 59°53' E 030°13'0 0.2
2014-Oct-19 23:28N 59°53' E 030°13'1 0.1
2014-Oct-19 17:22N 59°53' E 030°13'0 0.0
2014-Oct-19 16:31N 59°53' E 030°13'0 0.0
2014-Oct-19 15:33N 59°53' E 030°13'0 0.0
2014-Oct-19 12:08N 59°53' E 030°13'  
2014-Oct-17 07:14N 59°53' E 030°13'0 0.0
2014-Oct-17 05:32N 59°53' E 030°13'1 1.2
2014-Oct-17 04:32N 59°53' E 030°11'103 9.2
2014-Oct-16 17:22N 59°59' E 026°46'810.3
2014-Oct-16 16:33N 59°58' E 026°29'5210.4
2014-Oct-16 11:32N 59°46' E 024°49'1010.2
2014-Oct-16 10:33N 59°44' E 024°29'10 9.5
2014-Oct-16 09:33N 59°41' E 024°11'15 9.9
2014-Oct-16 08:05N 59°36' E 023°44'510.1
2014-Oct-16 07:33N 59°34' E 023°34'35710.2
2014-Oct-14 20:27N 55°34' E 015°22'1011.1
2014-Oct-14 19:30N 55°30' E 015°06'1111.3
2014-Oct-14 18:33N 55°25' E 014°49'1110.9
2014-Oct-14 17:33N 55°19' E 014°33'1111.0
2014-Oct-14 16:33N 55°10' E 014°21'1111.5
2014-Oct-14 15:33N 55°01' E 014°09'5711.4
2014-Oct-14 10:33N 54°42' E 012°36'1211.6
2014-Oct-14 09:33N 54°35' E 012°19'1211.3
2014-Oct-14 08:32N 54°25' E 012°11'1211.6
2014-Oct-14 07:32N 54°24' E 011°51'133 9.5
2014-Oct-13 17:32N 56°38' E 011°44'1010.7
2014-Oct-13 16:33N 56°47' E 011°51'1111.3
2014-Oct-13 15:33N 56°58' E 011°44'1211.7
2014-Oct-13 14:33N 57°09' E 011°37'1211.8
2014-Oct-13 13:34N 57°20' E 011°30'1211.5
2014-Oct-13 12:33N 57°30' E 011°19'1211.7
2014-Oct-13 11:33N 57°38' E 011°03'1212.0
2014-Oct-13 10:33N 57°46' E 010°47'1212.3
2014-Oct-13 09:33N 57°47' E 010°24'1312.5
2014-Oct-13 08:33N 57°46' E 010°00'13411.8
2014-Oct-12 21:15N 58°03' E 005°51'1311.5
2014-Oct-12 20:04N 58°11' E 005°31'  
Track history (hours):
 
Tides and Currents Weather Stations Pressure Air Temp Water Temp Dewpoint Dewpoint Depression Visibility Wind Speed Wind Dir Waves Ship Positions

Vidnoe

Last reported at 2014-Oct-22 16:30 UTC. Time now 2014-Nov-01 13:22 UTC.
Position N 59°53' E 030°13'.
Warning: this ship's position is 9 days out of date.

Length 115 m; beam 17 m.

Type: Tanker. MMSI: 273516400.

Date/timePositionNaut miles runAvg speedWind from/ knotsBaromVisibWave heightAir tempDewpointWater temp
2014-Oct-22 16:30N 59°53' E 030°13'0 0.0
2014-Oct-22 15:31N 59°53' E 030°13'0 0.0
2014-Oct-22 14:33N 59°53' E 030°13'0 0.0
2014-Oct-22 13:24N 59°53' E 030°13'0 0.0
2014-Oct-22 12:30N 59°53' E 030°13'0 0.0
2014-Oct-22 10:14N 59°53' E 030°13'0 0.0
2014-Oct-22 09:34N 59°53' E 030°13'0 0.0
2014-Oct-22 08:23N 59°53' E 030°13'0 0.0
2014-Oct-22 07:29N 59°53' E 030°13'0 0.0
2014-Oct-22 06:25N 59°53' E 030°13'0 0.0
2014-Oct-22 04:33N 59°53' E 030°13'0 0.0
2014-Oct-22 03:33N 59°53' E 030°13'0 0.0
2014-Oct-22 02:33N 59°53' E 030°13'0 0.0
2014-Oct-22 01:31N 59°53' E 030°13'0 0.0
2014-Oct-21 20:33N 59°53' E 030°13'0 0.0
2014-Oct-21 19:31N 59°53' E 030°13'0 0.0
2014-Oct-21 18:25N 59°53' E 030°13'0 0.0
2014-Oct-21 17:32N 59°53' E 030°13'0 0.0
2014-Oct-21 16:30N 59°53' E 030°13'0 0.0
2014-Oct-21 15:32N 59°53' E 030°13'0 0.0
2014-Oct-21 14:31N 59°53' E 030°13'0 0.0
2014-Oct-21 13:31N 59°53' E 030°13'0 0.0
2014-Oct-21 11:30N 59°53' E 030°13'0 0.0
2014-Oct-21 10:26N 59°53' E 030°13'0 0.0
2014-Oct-21 09:29N 59°53' E 030°13'0 0.0
2014-Oct-21 08:33N 59°53' E 030°13'0 0.0
2014-Oct-21 07:33N 59°53' E 030°13'0 0.0
2014-Oct-21 06:33N 59°53' E 030°13'0 0.0
2014-Oct-21 05:33N 59°53' E 030°13'0 0.0
2014-Oct-21 04:33N 59°53' E 030°13'0 0.0
2014-Oct-21 03:33N 59°53' E 030°13'0 0.0
2014-Oct-21 02:33N 59°53' E 030°13'0 0.0
2014-Oct-21 01:19N 59°53' E 030°13'0 0.0
2014-Oct-21 00:32N 59°53' E 030°13'0 0.0
2014-Oct-20 23:31N 59°53' E 030°13'0 0.0
2014-Oct-20 22:26N 59°53' E 030°13'0 0.0
2014-Oct-20 21:28N 59°53' E 030°13'0 0.0
2014-Oct-20 20:31N 59°53' E 030°13'0 0.0
2014-Oct-20 19:32N 59°53' E 030°13'0 0.0
2014-Oct-20 18:33N 59°53' E 030°13'0 0.0
2014-Oct-20 17:33N 59°53' E 030°13'0 0.0
2014-Oct-20 16:33N 59°53' E 030°13'0 0.0
2014-Oct-20 15:32N 59°53' E 030°13'0 0.0
2014-Oct-20 14:32N 59°53' E 030°13'0 0.0
2014-Oct-20 13:32N 59°53' E 030°13'0 0.0
2014-Oct-20 12:32N 59°53' E 030°13'0 0.0
2014-Oct-20 11:32N 59°53' E 030°13'0 0.0
2014-Oct-20 10:32N 59°53' E 030°13'0 0.0
2014-Oct-20 09:32N 59°53' E 030°13'0 0.0
2014-Oct-20 08:33N 59°53' E 030°13'0 0.0
2014-Oct-20 07:33N 59°53' E 030°13'0 0.0
2014-Oct-20 06:33N 59°53' E 030°13'0 0.0
2014-Oct-20 05:33N 59°53' E 030°13'0 0.0
2014-Oct-20 04:14N 59°53' E 030°13'0 0.0
2014-Oct-20 03:33N 59°53' E 030°13'0 0.0
2014-Oct-20 02:34N 59°53' E 030°13'0 0.0
2014-Oct-20 01:33N 59°53' E 030°13'0 0.0
2014-Oct-20 00:33N 59°53' E 030°13'0 0.2
2014-Oct-19 23:28N 59°53' E 030°13'1 0.1
2014-Oct-19 17:22N 59°53' E 030°13'0 0.0
2014-Oct-19 16:31N 59°53' E 030°13'0 0.0
2014-Oct-19 15:33N 59°53' E 030°13'0 0.0
2014-Oct-19 12:08N 59°53' E 030°13'  
2014-Oct-17 07:14N 59°53' E 030°13'0 0.0
2014-Oct-17 05:32N 59°53' E 030°13'1 1.2
2014-Oct-17 04:32N 59°53' E 030°11'103 9.2
2014-Oct-16 17:22N 59°59' E 026°46'810.3
2014-Oct-16 16:33N 59°58' E 026°29'5210.4
2014-Oct-16 11:32N 59°46' E 024°49'1010.2
2014-Oct-16 10:33N 59°44' E 024°29'10 9.5
2014-Oct-16 09:33N 59°41' E 024°11'15 9.9
2014-Oct-16 08:05N 59°36' E 023°44'510.1
2014-Oct-16 07:33N 59°34' E 023°34'35710.2
2014-Oct-14 20:27N 55°34' E 015°22'1011.1
2014-Oct-14 19:30N 55°30' E 015°06'1111.3
2014-Oct-14 18:33N 55°25' E 014°49'1110.9
2014-Oct-14 17:33N 55°19' E 014°33'1111.0
2014-Oct-14 16:33N 55°10' E 014°21'1111.5
2014-Oct-14 15:33N 55°01' E 014°09'5711.4
2014-Oct-14 10:33N 54°42' E 012°36'1211.6
2014-Oct-14 09:33N 54°35' E 012°19'1211.3
2014-Oct-14 08:32N 54°25' E 012°11'1211.6
2014-Oct-14 07:32N 54°24' E 011°51'133 9.5
2014-Oct-13 17:32N 56°38' E 011°44'1010.7
2014-Oct-13 16:33N 56°47' E 011°51'1111.3
2014-Oct-13 15:33N 56°58' E 011°44'1211.7
2014-Oct-13 14:33N 57°09' E 011°37'1211.8
2014-Oct-13 13:34N 57°20' E 011°30'1211.5
2014-Oct-13 12:33N 57°30' E 011°19'1211.7
2014-Oct-13 11:33N 57°38' E 011°03'1212.0
2014-Oct-13 10:33N 57°46' E 010°47'1212.3
2014-Oct-13 09:33N 57°47' E 010°24'1312.5
2014-Oct-13 08:33N 57°46' E 010°00'13411.8
2014-Oct-12 21:15N 58°03' E 005°51'1311.5
2014-Oct-12 20:04N 58°11' E 005°31'  

Dump ship's entire track history